createdAt,value
2022-10-01T00:00:50.398Z,5.63
2022-10-01T00:03:17.769Z,4.47
2022-10-01T00:05:44.979Z,3.53
2022-10-01T00:08:13.956Z,3.83
2022-10-01T00:10:43.903Z,3.25
2022-10-01T00:13:10.880Z,5.55
2022-10-01T00:15:40.985Z,3.15
2022-10-01T00:18:08.872Z,3.30
2022-10-01T00:20:35.517Z,2.47
2022-10-01T00:23:01.951Z,4.13
2022-10-01T00:25:28.364Z,4.95
2022-10-01T00:27:55.041Z,3.20
2022-10-01T00:30:21.619Z,5.43
2022-10-01T00:32:48.154Z,4.88
2022-10-01T00:35:14.598Z,2.75
2022-10-01T00:37:42.509Z,3.05
2022-10-01T00:40:09.076Z,3.75
2022-10-01T00:42:35.481Z,4.25
2022-10-01T00:45:02.169Z,3.35
2022-10-01T00:47:33.093Z,4.30
2022-10-01T00:50:21.084Z,4.82
2022-10-01T00:52:52.065Z,4.68
2022-10-01T00:55:52.702Z,3.63
2022-10-01T00:58:20.195Z,3.22
2022-10-01T01:00:46.594Z,5.22
2022-10-01T01:03:13.319Z,4.15
2022-10-01T01:05:39.799Z,5.50
2022-10-01T01:08:06.721Z,4.35
2022-10-01T01:10:39.866Z,3.92
2022-10-01T01:13:50.935Z,2.88
2022-10-01T01:16:22.636Z,5.22
2022-10-01T01:18:54.980Z,3.30
2022-10-01T01:21:34.671Z,3.47
2022-10-01T01:24:04.405Z,3.78
2022-10-01T01:26:42.304Z,3.95
2022-10-01T01:29:16.977Z,3.88
2022-10-01T01:31:48.243Z,3.47
2022-10-01T01:37:12.156Z,5.45
2022-10-01T01:39:41.525Z,4.20
2022-10-01T01:42:11.663Z,4.70
2022-10-01T01:44:40.241Z,3.80
2022-10-01T01:47:08.286Z,3.80
2022-10-01T01:49:35.890Z,3.15
2022-10-01T01:52:14.254Z,2.90
2022-10-01T01:54:40.832Z,3.63
2022-10-01T01:57:07.764Z,4.85
2022-10-01T01:59:35.651Z,2.90
2022-10-01T02:02:02.416Z,3.85
2022-10-01T02:04:33.055Z,3.42
2022-10-01T02:07:17.989Z,2.90
2022-10-01T02:09:52.044Z,4.70
2022-10-01T02:12:30.222Z,3.17
2022-10-01T02:15:08.842Z,3.13
2022-10-01T02:17:44.187Z,2.72
2022-10-01T02:20:23.133Z,3.08
2022-10-01T02:22:58.713Z,3.00
2022-10-01T02:25:27.977Z,4.78
2022-10-01T02:27:59.062Z,3.95
2022-10-01T02:30:25.685Z,3.30
2022-10-01T02:32:52.465Z,3.28
2022-10-01T02:35:19.602Z,4.75
2022-10-01T02:37:49.717Z,4.63
2022-10-01T02:40:18.309Z,3.65
2022-10-01T02:42:50.125Z,3.95
2022-10-01T02:45:22.726Z,3.60
2022-10-01T02:50:16.477Z,4.97
2022-10-01T02:52:49.027Z,3.65
2022-10-01T02:57:43.989Z,5.82
2022-10-01T03:00:12.932Z,5.53
2022-10-01T03:02:39.525Z,4.43
2022-10-01T03:05:06.559Z,4.85
2022-10-01T03:07:35.610Z,4.97
2022-10-01T03:10:05.524Z,5.55
2022-10-01T03:12:31.954Z,5.18
2022-10-01T03:14:58.443Z,6.40
2022-10-01T03:17:25.217Z,8.48
2022-10-01T03:19:51.770Z,4.57
2022-10-01T03:22:22.446Z,5.93
2022-10-01T03:24:52.762Z,5.90
2022-10-01T03:27:20.034Z,8.30
2022-10-01T03:29:46.697Z,8.43
2022-10-01T03:32:13.783Z,7.35
2022-10-01T03:34:40.367Z,6.38
2022-10-01T03:37:07.237Z,6.47
2022-10-01T03:39:34.221Z,6.43
2022-10-01T03:42:00.652Z,8.63
2022-10-01T03:44:28.337Z,6.88
2022-10-01T03:46:55.007Z,9.57
2022-10-01T03:49:21.436Z,7.75
2022-10-01T03:51:47.818Z,7.70
2022-10-01T03:54:14.526Z,7.07
2022-10-01T03:56:42.651Z,6.13
2022-10-01T03:59:10.835Z,6.97
2022-10-01T04:01:38.847Z,7.20
2022-10-01T04:04:05.924Z,5.57
2022-10-01T04:06:32.820Z,6.40
2022-10-01T04:08:59.276Z,8.30
2022-10-01T04:11:25.906Z,9.18
2022-10-01T04:13:52.440Z,6.55
2022-10-01T04:16:19.033Z,9.88
2022-10-01T04:18:45.601Z,6.38
2022-10-01T04:21:12.804Z,6.47
2022-10-01T04:23:39.250Z,5.85
2022-10-01T04:26:05.758Z,7.35
2022-10-01T04:28:32.271Z,7.07
2022-10-01T04:31:17.474Z,7.43
2022-10-01T04:33:44.569Z,7.00
2022-10-01T04:36:11.131Z,5.75
2022-10-01T04:38:37.570Z,7.38
2022-10-01T04:41:04.150Z,7.05
2022-10-01T04:43:30.579Z,7.53
2022-10-01T04:45:57.050Z,5.68
2022-10-01T04:48:24.174Z,5.55
2022-10-01T04:50:50.543Z,5.80
2022-10-01T04:53:16.979Z,7.53
2022-10-01T04:55:43.718Z,6.15
2022-10-01T04:58:10.274Z,7.22
2022-10-01T05:00:36.862Z,7.47
2022-10-01T05:03:03.454Z,5.82
2022-10-01T05:05:32.854Z,6.80
2022-10-01T05:07:59.263Z,6.57
2022-10-01T05:10:26.111Z,5.88
2022-10-01T05:12:52.575Z,6.88
2022-10-01T05:15:19.472Z,8.15
2022-10-01T05:17:46.845Z,5.13
2022-10-01T05:20:20.210Z,5.78
2022-10-01T05:22:47.381Z,4.82
2022-10-01T05:25:14.474Z,5.55
2022-10-01T05:27:41.281Z,6.93
2022-10-01T05:30:12.344Z,5.40
2022-10-01T05:32:39.306Z,6.72
2022-10-01T05:35:07.074Z,12.48
2022-10-01T05:37:34.164Z,5.22
2022-10-01T05:40:00.912Z,5.25
2022-10-01T05:42:27.388Z,5.30
2022-10-01T05:44:53.794Z,5.35
2022-10-01T05:47:20.915Z,6.50
2022-10-01T05:49:47.321Z,7.07
2022-10-01T05:52:15.161Z,4.95
2022-10-01T05:54:41.740Z,7.03
2022-10-01T05:57:09.038Z,5.35
2022-10-01T05:59:35.926Z,6.75
2022-10-01T06:02:03.814Z,4.47
2022-10-01T06:04:30.364Z,4.80
2022-10-01T06:06:56.844Z,4.25
2022-10-01T06:09:23.278Z,4.85
2022-10-01T06:11:49.966Z,5.78
2022-10-01T06:14:16.743Z,4.32
2022-10-01T06:16:43.271Z,7.07
2022-10-01T06:19:09.866Z,3.60
2022-10-01T06:21:36.740Z,8.00
2022-10-01T06:24:03.458Z,3.40
2022-10-01T06:26:29.912Z,3.53
2022-10-01T06:28:56.603Z,3.90
2022-10-01T06:31:23.947Z,3.88
2022-10-01T06:33:50.429Z,3.67
2022-10-01T06:36:16.893Z,4.38
2022-10-01T06:38:43.659Z,3.83
2022-10-01T06:41:10.358Z,3.97
2022-10-01T06:43:36.824Z,4.88
2022-10-01T06:46:05.013Z,3.58
2022-10-01T06:48:32.410Z,4.03
2022-10-01T06:50:59.505Z,4.47
2022-10-01T06:53:27.992Z,3.45
2022-10-01T06:55:55.119Z,3.47
2022-10-01T06:58:23.381Z,3.13
2022-10-01T07:00:50.388Z,3.13
2022-10-01T07:03:21.733Z,3.17
2022-10-01T07:05:48.731Z,2.70
2022-10-01T07:08:15.540Z,3.85
2022-10-01T07:10:43.042Z,2.80
2022-10-01T07:13:12.189Z,2.78
2022-10-01T07:15:39.174Z,2.85
2022-10-01T07:18:06.090Z,3.00
2022-10-01T07:20:35.869Z,3.95
2022-10-01T07:23:02.287Z,3.10
2022-10-01T07:25:28.967Z,3.40
2022-10-01T07:27:57.125Z,2.95
2022-10-01T07:30:24.091Z,2.88
2022-10-01T07:32:50.590Z,3.25
2022-10-01T07:35:17.926Z,4.13
2022-10-01T07:37:44.308Z,2.92
2022-10-01T07:40:10.790Z,2.65
2022-10-01T07:42:38.241Z,2.85
2022-10-01T07:45:06.463Z,4.40
2022-10-01T07:47:32.893Z,3.42
2022-10-01T07:49:59.406Z,2.67
2022-10-01T07:52:25.823Z,3.17
2022-10-01T07:54:52.239Z,2.83
2022-10-01T07:57:18.622Z,3.20
2022-10-01T07:59:45.071Z,3.58
2022-10-01T08:02:16.014Z,3.35
2022-10-01T08:05:01.034Z,4.75
2022-10-01T08:07:27.657Z,3.13
2022-10-01T08:09:54.058Z,3.80
2022-10-01T08:12:20.437Z,3.15
2022-10-01T08:14:49.701Z,3.70
2022-10-01T08:17:16.144Z,6.53
2022-10-01T08:19:42.619Z,3.55
2022-10-01T08:22:09.078Z,3.25
2022-10-01T08:24:36.243Z,3.33
2022-10-01T08:27:02.709Z,4.13
2022-10-01T08:29:29.159Z,3.55
2022-10-01T08:31:56.133Z,3.35
2022-10-01T08:34:22.574Z,2.90
2022-10-01T08:36:52.365Z,4.93
2022-10-01T08:39:18.894Z,4.13
2022-10-01T08:42:05.257Z,3.47
2022-10-01T08:44:41.161Z,3.97
2022-10-01T08:47:13.586Z,3.53
2022-10-01T08:49:53.024Z,3.67
2022-10-01T08:52:26.382Z,3.55
2022-10-01T08:54:58.080Z,3.78
2022-10-01T08:57:30.034Z,2.97
2022-10-01T08:59:59.265Z,6.10
2022-10-01T09:02:26.993Z,3.80
2022-10-01T09:05:00.327Z,4.00
2022-10-01T09:07:30.804Z,4.70
2022-10-01T09:10:19.708Z,4.97
2022-10-01T09:12:53.157Z,6.40
2022-10-01T09:16:10.950Z,5.32
2022-10-01T09:19:06.186Z,6.78
2022-10-01T09:21:51.204Z,10.50
2022-10-01T09:24:29.793Z,7.18
2022-10-01T09:26:56.244Z,7.82
2022-10-01T09:29:27.516Z,8.27
2022-10-01T09:31:54.599Z,8.75
2022-10-01T09:34:41.877Z,9.10
2022-10-01T09:37:19.020Z,9.55
2022-10-01T09:40:06.165Z,11.95
2022-10-01T09:42:32.677Z,12.50
2022-10-01T09:44:59.306Z,13.02
2022-10-01T09:47:25.915Z,13.95
2022-10-01T09:49:52.805Z,13.30
2022-10-01T09:52:32.322Z,14.05
2022-10-01T09:55:20.455Z,15.40
2022-10-01T09:58:08.820Z,14.77
2022-10-01T10:00:36.980Z,15.95
2022-10-01T10:03:03.582Z,15.23
2022-10-01T10:05:43.180Z,14.80
2022-10-01T10:08:15.380Z,13.93
2022-10-01T10:10:54.117Z,14.35
2022-10-01T10:13:26.627Z,14.68
2022-10-01T10:18:31.078Z,12.97
2022-10-01T10:20:59.260Z,14.40
2022-10-01T10:23:31.590Z,13.02
2022-10-01T10:26:03.764Z,12.77
2022-10-01T10:28:43.806Z,12.13
2022-10-01T10:31:15.305Z,12.35
2022-10-01T10:33:47.050Z,11.38
2022-10-01T10:36:16.036Z,11.53
2022-10-01T10:38:50.057Z,11.30
2022-10-01T10:41:19.733Z,10.68
2022-10-01T10:43:48.829Z,12.20
2022-10-01T10:46:46.479Z,15.18
2022-10-01T10:49:20.784Z,9.40
2022-10-01T10:51:53.983Z,9.25
2022-10-01T10:54:28.036Z,8.52
2022-10-01T10:57:16.254Z,10.20
2022-10-01T10:59:42.658Z,7.63
2022-10-01T11:02:16.736Z,7.38
2022-10-01T11:04:44.777Z,8.63
2022-10-01T11:07:13.261Z,8.82
2022-10-01T11:10:05.869Z,7.65
2022-10-01T11:12:43.903Z,7.47
2022-10-01T11:15:31.754Z,5.70
2022-10-01T11:18:10.375Z,5.55
2022-10-01T11:20:53.757Z,7.47
2022-10-01T11:23:34.063Z,3.95
2022-10-01T11:26:16.464Z,17.25
2022-10-01T11:29:03.165Z,7.22
2022-10-01T11:31:35.688Z,5.28
2022-10-01T11:34:15.931Z,7.20
2022-10-01T11:37:21.493Z,8.13
2022-10-01T11:39:48.805Z,5.15
2022-10-01T11:42:22.228Z,4.72
2022-10-01T11:45:00.509Z,6.03
2022-10-01T11:47:33.458Z,5.90
2022-10-01T11:50:03.659Z,4.30
2022-10-01T11:52:56.085Z,6.93
2022-10-01T11:55:52.211Z,8.60
2022-10-01T11:58:52.634Z,5.88
2022-10-01T12:01:34.293Z,5.00
2022-10-01T12:04:06.760Z,7.63
2022-10-01T12:06:38.164Z,4.85
2022-10-01T12:09:16.996Z,6.97
2022-10-01T12:11:45.668Z,6.18
2022-10-01T12:14:41.708Z,6.60
2022-10-01T12:17:48.770Z,6.45
2022-10-01T12:20:23.439Z,5.47
2022-10-01T12:22:50.335Z,9.05
2022-10-01T12:25:17.564Z,7.80
2022-10-01T12:27:55.573Z,6.25
2022-10-01T12:30:24.959Z,5.53
2022-10-01T12:33:42.251Z,4.00
2022-10-01T12:36:36.631Z,5.35
2022-10-01T12:39:16.624Z,8.32
2022-10-01T12:42:04.544Z,6.03
2022-10-01T12:44:44.460Z,5.38
2022-10-01T12:47:36.362Z,5.65
2022-10-01T12:50:35.528Z,5.05
2022-10-01T12:53:14.341Z,3.95
2022-10-01T12:56:01.081Z,4.55
2022-10-01T12:58:44.106Z,4.63
2022-10-01T13:01:29.261Z,6.97
2022-10-01T13:04:13.262Z,3.28
2022-10-01T13:06:58.068Z,6.50
2022-10-01T13:09:39.586Z,5.03
2022-10-01T13:12:36.788Z,3.65
2022-10-01T13:15:04.963Z,3.50
2022-10-01T13:17:39.545Z,2.83
2022-10-01T13:20:22.144Z,5.90
2022-10-01T13:25:38.942Z,3.55
2022-10-01T13:28:17.599Z,5.60
2022-10-01T13:30:56.556Z,6.60
2022-10-01T13:33:28.437Z,4.50
2022-10-01T13:35:58.462Z,5.80
2022-10-01T13:38:50.041Z,11.93
2022-10-01T13:41:29.014Z,6.40
2022-10-01T13:43:59.640Z,3.97
2022-10-01T13:46:31.034Z,7.38
2022-10-01T13:49:07.079Z,8.07
2022-10-01T13:51:37.689Z,3.65
2022-10-01T13:54:08.828Z,3.00
2022-10-01T13:56:37.695Z,4.47
2022-10-01T13:59:06.716Z,5.10
2022-10-01T14:01:41.327Z,3.78
2022-10-01T14:04:22.577Z,2.30
2022-10-01T14:07:02.814Z,4.28
2022-10-01T14:09:31.784Z,4.55
2022-10-01T14:12:24.220Z,35.95
2022-10-01T14:15:17.721Z,18.23
2022-10-01T14:17:44.818Z,8.00
2022-10-01T14:20:24.021Z,13.73
2022-10-01T14:23:05.659Z,11.75
2022-10-01T14:26:07.018Z,5.53
2022-10-01T14:28:54.203Z,5.65
2022-10-01T14:31:35.246Z,6.20
2022-10-01T14:34:23.982Z,5.60
2022-10-01T14:36:52.432Z,5.70
2022-10-01T14:39:20.144Z,6.72
2022-10-01T14:41:49.144Z,6.03
2022-10-01T14:44:22.073Z,9.50
2022-10-01T14:46:50.160Z,11.52
2022-10-01T14:49:21.881Z,8.50
2022-10-01T14:51:53.250Z,7.47
2022-10-01T14:54:20.395Z,7.50
2022-10-01T14:56:46.970Z,9.27
2022-10-01T14:59:41.152Z,5.50
2022-10-01T15:02:18.336Z,5.13
2022-10-01T15:04:50.419Z,6.05
2022-10-01T15:07:17.284Z,5.90
2022-10-01T15:09:44.924Z,6.50
2022-10-01T15:12:13.241Z,6.40
2022-10-01T15:14:40.453Z,7.07
2022-10-01T15:17:07.997Z,9.07
2022-10-01T15:19:44.130Z,5.78
2022-10-01T15:22:12.446Z,3.97
2022-10-01T15:24:44.939Z,4.72
2022-10-01T15:29:42.047Z,9.48
2022-10-01T15:32:09.992Z,9.52
2022-10-01T15:34:47.753Z,8.35
2022-10-01T15:37:25.145Z,9.13
2022-10-01T15:39:52.454Z,9.43
2022-10-01T15:42:23.341Z,8.85
2022-10-01T15:44:50.481Z,8.20
2022-10-01T15:47:19.799Z,9.27
2022-10-01T15:50:05.523Z,7.78
2022-10-01T15:52:56.929Z,6.15
2022-10-01T15:55:26.276Z,8.32
2022-10-01T15:57:56.706Z,9.13
2022-10-01T16:00:28.509Z,9.82
2022-10-01T16:02:56.030Z,8.63
2022-10-01T16:05:25.279Z,9.18
2022-10-01T16:07:56.093Z,8.18
2022-10-01T16:10:42.066Z,8.75
2022-10-01T16:13:31.729Z,8.35
2022-10-01T16:16:10.328Z,7.63
2022-10-01T16:18:39.601Z,5.30
2022-10-01T16:21:09.119Z,6.85
2022-10-01T16:23:42.567Z,8.32
2022-10-01T16:26:27.329Z,6.43
2022-10-01T16:28:58.831Z,7.82
2022-10-01T16:31:25.657Z,7.55
2022-10-01T16:33:52.205Z,9.50
2022-10-01T16:36:20.559Z,12.35
2022-10-01T16:38:48.101Z,9.82
2022-10-01T16:41:26.095Z,11.80
2022-10-01T16:43:54.705Z,11.65
2022-10-01T16:46:21.200Z,7.32
2022-10-01T16:48:51.303Z,8.55
2022-10-01T16:51:19.164Z,8.25
2022-10-01T16:53:46.918Z,7.70
2022-10-01T16:56:14.087Z,6.97
2022-10-01T16:58:41.701Z,10.20
2022-10-01T17:01:09.496Z,9.63
2022-10-01T17:03:36.656Z,10.00
2022-10-01T17:06:03.699Z,10.68
2022-10-01T17:08:30.166Z,9.48
2022-10-01T17:10:59.817Z,7.72
2022-10-01T17:13:27.882Z,9.30
2022-10-01T17:15:54.686Z,11.45
2022-10-01T17:18:21.450Z,6.82
2022-10-01T17:20:47.974Z,9.90
2022-10-01T17:23:16.634Z,7.18
2022-10-01T17:25:43.410Z,11.85
2022-10-01T17:28:15.022Z,8.50
2022-10-01T17:30:42.984Z,10.23
2022-10-01T17:33:10.977Z,12.98
2022-10-01T17:35:42.991Z,8.50
2022-10-01T17:38:09.980Z,12.85
2022-10-01T17:40:36.988Z,7.50
2022-10-01T17:43:03.698Z,7.47
2022-10-01T17:45:30.182Z,6.38
2022-10-01T17:47:56.561Z,8.80
2022-10-01T17:50:23.723Z,6.28
2022-10-01T17:52:50.403Z,10.77
2022-10-01T17:55:17.309Z,8.07
2022-10-01T17:57:43.685Z,8.70
2022-10-01T18:00:10.546Z,6.60
2022-10-01T18:02:41.980Z,7.35
2022-10-01T18:05:12.013Z,5.40
2022-10-01T18:07:38.955Z,8.57
2022-10-01T18:10:07.126Z,9.20
2022-10-01T18:12:34.005Z,8.32
2022-10-01T18:15:01.439Z,9.43
2022-10-01T18:17:27.891Z,10.65
2022-10-01T18:19:54.529Z,12.45
2022-10-01T18:22:21.251Z,16.45
2022-10-01T18:24:47.718Z,10.60
2022-10-01T18:27:14.142Z,12.35
2022-10-01T18:29:40.664Z,15.90
2022-10-01T18:32:28.556Z,9.90
2022-10-01T18:35:00.349Z,12.90
2022-10-01T18:37:37.637Z,8.50
2022-10-01T18:40:13.286Z,11.25
2022-10-01T18:43:08.544Z,9.73
2022-10-01T18:46:02.272Z,9.77
2022-10-01T18:49:05.897Z,9.15
2022-10-01T18:52:06.846Z,10.15
2022-10-01T18:54:42.595Z,8.25
2022-10-01T18:57:33.875Z,11.15
2022-10-01T19:00:35.790Z,10.77
2022-10-01T19:03:18.724Z,13.98
2022-10-01T19:08:51.162Z,12.15
2022-10-01T19:11:30.905Z,14.95
2022-10-01T19:14:06.673Z,12.30
2022-10-01T19:16:51.153Z,11.73
2022-10-01T19:19:38.994Z,12.55
2022-10-01T19:22:05.249Z,11.65
2022-10-01T19:24:51.946Z,12.80
2022-10-01T19:27:38.357Z,8.05
2022-10-01T19:30:12.350Z,10.60
2022-10-01T19:32:42.513Z,12.00
2022-10-01T19:35:20.892Z,12.82
2022-10-01T19:37:51.757Z,13.63
2022-10-01T19:40:32.610Z,11.75
2022-10-01T19:43:18.500Z,9.32
2022-10-01T19:46:08.892Z,17.05
2022-10-01T19:48:46.554Z,13.38
2022-10-01T19:51:15.631Z,10.80
2022-10-01T19:53:49.746Z,13.98
2022-10-01T19:56:22.425Z,12.88
2022-10-01T19:58:48.802Z,12.10
2022-10-01T20:01:20.335Z,12.38
2022-10-01T20:04:01.227Z,10.50
2022-10-01T20:06:31.428Z,13.35
2022-10-01T20:09:00.367Z,11.23
2022-10-01T20:11:52.961Z,12.23
2022-10-01T20:14:57.620Z,13.27
2022-10-01T20:17:37.551Z,10.27
2022-10-01T20:20:16.751Z,14.43
2022-10-01T20:22:52.893Z,10.00
2022-10-01T20:25:27.950Z,12.40
2022-10-01T20:28:10.675Z,13.52
2022-10-01T20:33:18.525Z,15.77
2022-10-01T20:36:06.325Z,14.73
2022-10-01T20:38:43.778Z,14.95
2022-10-01T20:41:14.677Z,17.90
2022-10-01T20:43:45.965Z,13.85
2022-10-01T20:46:16.889Z,12.57
2022-10-01T20:48:51.244Z,14.70
2022-10-01T20:51:32.881Z,13.10
2022-10-01T20:54:05.976Z,13.35
2022-10-01T20:56:36.416Z,17.77
2022-10-01T20:59:07.134Z,12.55
2022-10-01T21:01:38.690Z,10.02
2022-10-01T21:04:10.494Z,15.32
2022-10-01T21:06:46.971Z,13.00
2022-10-01T21:09:46.465Z,12.25
2022-10-01T21:12:22.961Z,8.90
2022-10-01T21:14:53.573Z,10.90
2022-10-01T21:17:32.089Z,8.63
2022-10-01T21:20:07.489Z,12.32
2022-10-01T21:22:33.777Z,10.68
2022-10-01T21:25:09.230Z,10.50
2022-10-01T21:28:00.576Z,10.10
2022-10-01T21:30:35.172Z,10.07
2022-10-01T21:33:15.611Z,11.95
2022-10-01T21:35:55.507Z,11.77
2022-10-01T21:38:44.672Z,13.45
2022-10-01T21:41:26.041Z,12.52
2022-10-01T21:44:31.425Z,12.93
2022-10-01T21:47:00.972Z,10.77
2022-10-01T21:49:53.583Z,12.05
2022-10-01T21:52:41.343Z,13.90
2022-10-01T21:55:30.045Z,11.90
2022-10-01T21:58:05.812Z,13.57
2022-10-01T22:00:32.633Z,12.20
2022-10-01T22:03:12.848Z,13.40
2022-10-01T22:05:44.851Z,10.90
2022-10-01T22:08:36.144Z,8.40
2022-10-01T22:11:12.051Z,8.60
2022-10-01T22:13:51.046Z,7.07
2022-10-01T22:16:19.245Z,7.90
2022-10-01T22:19:04.116Z,7.70
2022-10-01T22:21:49.326Z,7.88
2022-10-01T22:24:19.136Z,10.02
2022-10-01T22:26:49.484Z,11.57
2022-10-01T22:29:18.980Z,7.85
2022-10-01T22:31:47.370Z,6.70
2022-10-01T22:34:26.996Z,4.53
2022-10-01T22:37:00.366Z,6.85
2022-10-01T22:39:29.791Z,8.20
2022-10-01T22:42:20.813Z,10.15
2022-10-01T22:44:47.877Z,10.20
2022-10-01T22:47:36.999Z,7.45
2022-10-01T22:50:06.402Z,10.98
2022-10-01T22:52:58.470Z,6.82
2022-10-01T22:55:40.038Z,6.23
2022-10-01T22:58:18.742Z,9.30
2022-10-01T23:00:58.467Z,6.47
2022-10-01T23:03:36.536Z,8.85
2022-10-01T23:06:18.297Z,7.07
2022-10-01T23:08:55.161Z,9.45
2022-10-01T23:11:21.449Z,8.77
2022-10-01T23:14:35.360Z,8.63
2022-10-01T23:17:36.456Z,7.63
2022-10-01T23:20:20.471Z,6.72
2022-10-01T23:22:57.898Z,5.55
2022-10-01T23:25:52.327Z,9.20
2022-10-01T23:28:34.973Z,6.07
2022-10-01T23:31:45.514Z,7.07
2022-10-01T23:34:19.314Z,7.90
2022-10-01T23:36:51.576Z,8.10
2022-10-01T23:39:42.792Z,8.07
2022-10-01T23:42:33.332Z,7.50
2022-10-01T23:45:11.860Z,9.35
2022-10-01T23:48:00.005Z,9.63
2022-10-01T23:50:35.331Z,7.45
2022-10-01T23:53:12.614Z,15.05
2022-10-01T23:56:03.542Z,11.23
2022-10-01T23:58:43.707Z,13.15
